Prattsville, New York
Current Conditions -  °F | °C
As of 1:51 AM on Saturday 29 Nov 2014 (Local Time) from KALB Reporting Station
Broken Clouds Broken Clouds  
Wind Chill:   Ceiling: 4300
Heat Index: 16°   Visibility: 10mi
Dew Point: 11°   Wind: 5mph
Humidity: 81%   Direction: 190°S
Pressure: 30.26"   Gusts: NA
Location:  42.31°N, 74.43°W
Report Text: KALB 290651Z 19004KT 10SM BKN043 M09/M12 A3026 RMK AO2 SLP252 T10891117
Loading
Personal Weather Stations






























Interactive Weather Map New forecast layout! Learn more

10-Day Weather Forecast

Advertisements
Track Severe Weather on mobile